Time;durP1;ratioP1;P1;durP2;ratioP2;P2;SDS_P1;SDS_P2;PMS_P1;PMS_P2;Temp;Humidity;BMP_temperature;BMP_pressure;BME280_temperature;BME280_humidity;BME280_pressure;Samples;Min_cycle;Max_cycle;Signal;HPM_P1;HPM_P2
2022/08/11 00:01:14;;;;;;;4.40;3.20;;;18.80;99.90;;;;;;4982811;28;20434;-81
2022/08/11 00:03:56;;;;;;;5.13;2.73;;;18.80;99.90;;;;;;4982190;28;20491;-79
2022/08/11 00:06:32;;;;;;;3.73;3.27;;;18.70;99.90;;;;;;4974607;28;20459;-80
2022/08/11 00:09:02;;;;;;;2.80;2.60;;;18.70;99.90;;;;;;4978030;28;20470;-80
2022/08/11 00:11:45;;;;;;;3.90;3.27;;;18.60;99.90;;;;;;4976115;28;20510;-81
2022/08/11 00:14:22;;;;;;;4.00;3.67;;;18.50;99.90;;;;;;4977838;28;20487;-79
2022/08/11 00:17:08;;;;;;;5.33;2.93;;;18.50;99.90;;;;;;4968544;28;20503;-79
2022/08/11 00:19:45;;;;;;;3.63;3.33;;;18.70;99.90;;;;;;4977920;28;20562;-79
2022/08/11 00:22:33;;;;;;;6.00;3.60;;;18.80;99.90;;;;;;4976611;28;20435;-78
2022/08/11 00:25:10;;;;;;;4.07;3.50;;;18.60;99.90;;;;;;4971750;28;20463;-78
2022/08/11 00:27:39;;;;;;;3.90;2.80;;;18.60;99.90;;;;;;4974907;28;20452;-79
2022/08/11 00:30:08;;;;;;;4.60;4.00;;;18.60;99.90;;;;;;4975916;28;20440;-80
2022/08/11 00:32:37;;;;;;;3.47;3.17;;;18.80;99.90;;;;;;4974134;28;20531;-81
2022/08/11 00:35:09;;;;;;;3.53;2.83;;;18.90;99.90;;;;;;4976546;28;20487;-80
2022/08/11 00:37:58;;;;;;;4.03;3.40;;;18.90;99.90;;;;;;4967088;28;20482;-81
2022/08/11 00:40:52;;;;;;;5.77;4.47;;;18.70;99.90;;;;;;4972474;28;20437;-79
2022/08/11 00:43:46;;;;;;;3.83;3.53;;;18.60;99.90;;;;;;4977886;28;20698;-81
2022/08/11 00:46:25;;;;;;;3.90;3.30;;;18.40;99.90;;;;;;4973450;28;20437;-81
2022/08/11 00:49:24;;;;;;;5.83;4.10;;;18.40;99.90;;;;;;4977552;28;20444;-80
2022/08/11 00:52:09;;;;;;;3.50;2.50;;;18.30;99.90;;;;;;4972848;28;20441;-81
2022/08/11 00:55:21;;;;;;;3.93;3.63;;;17.90;99.90;;;;;;4982067;28;20456;-80
2022/08/11 00:58:37;;;;;;;3.87;3.53;;;17.70;99.90;;;;;;4988617;28;20432;-81
2022/08/11 01:01:31;;;;;;;4.27;3.87;;;18.00;99.90;;;;;;4981787;28;20481;-81
2022/08/11 01:04:38;;;;;;;5.87;2.67;;;18.10;99.90;;;;;;4960114;28;20424;-81
2022/08/11 01:07:27;;;;;;;4.93;3.20;;;18.10;99.90;;;;;;4972801;28;20443;-81
2022/08/11 01:10:45;;;;;;;3.70;3.20;;;18.10;99.90;;;;;;4972237;28;20457;-81
2022/08/11 01:13:33;;;;;;;3.40;3.07;;;18.00;99.90;;;;;;4963833;28;20675;-81
2022/08/11 01:16:22;;;;;;;4.30;3.40;;;18.00;99.90;;;;;;4976977;28;20846;-82
2022/08/11 01:19:02;;;;;;;4.50;3.67;;;17.90;99.90;;;;;;4961198;28;20451;-81
2022/08/11 01:21:56;;;;;;;3.93;3.63;;;17.80;99.90;;;;;;4977316;28;20455;-80
2022/08/11 01:24:42;;;;;;;4.87;4.00;;;17.80;99.90;;;;;;4977454;28;20450;-80
2022/08/11 01:27:34;;;;;;;4.63;3.40;;;17.60;99.90;;;;;;4975631;28;20513;-79
2022/08/11 01:30:42;;;;;;;4.90;3.40;;;17.60;99.90;;;;;;4970546;28;20448;-79
2022/08/11 01:33:40;;;;;;;3.80;3.50;;;17.50;99.90;;;;;;4972222;28;20478;-80
2022/08/11 01:36:31;;;;;;;4.13;2.87;;;17.30;99.90;;;;;;4974027;28;20425;-81
2022/08/11 01:39:20;;;;;;;3.03;2.83;;;17.20;99.90;;;;;;4966189;28;20954;-80
2022/08/11 01:45:07;;;;;;;5.33;3.83;;;17.00;99.90;;;;;;4965890;28;20441;-79
2022/08/11 01:47:58;;;;;;;4.53;3.40;;;17.00;99.90;;;;;;4968250;28;20448;-79
2022/08/11 01:51:00;;;;;;;4.50;3.13;;;17.00;99.90;;;;;;4966645;28;20547;-79
2022/08/11 01:53:56;;;;;;;5.00;3.70;;;16.90;99.90;;;;;;4984613;28;20476;-79
2022/08/11 01:56:37;;;;;;;3.90;3.60;;;16.90;99.90;;;;;;4992509;28;20424;-80
2022/08/11 01:59:09;;;;;;;3.90;3.50;;;16.70;99.90;;;;;;4997027;28;20507;-79
2022/08/11 02:01:57;;;;;;;4.20;3.80;;;16.50;99.90;;;;;;4994528;28;20439;-79
2022/08/11 02:04:51;;;;;;;3.97;3.40;;;16.40;99.90;;;;;;4984225;28;20443;-80
2022/08/11 02:07:46;;;;;;;4.77;4.27;;;16.50;99.90;;;;;;4977153;28;20444;-80
2022/08/11 02:13:48;;;;;;;4.93;4.43;;;16.20;99.90;;;;;;4974105;28;20495;-79
2022/08/11 02:16:43;;;;;;;4.90;4.33;;;16.20;99.90;;;;;;4975284;28;20761;-79
2022/08/11 02:25:19;;;;;;;8.80;3.87;;;16.30;99.90;;;;;;4970329;28;20443;-79
2022/08/11 02:27:54;;;;;;;4.27;3.87;;;16.20;99.90;;;;;;4971891;28;20444;-80
2022/08/11 02:30:26;;;;;;;4.40;4.00;;;16.10;99.90;;;;;;4973175;28;20673;-79
2022/08/11 02:33:21;;;;;;;8.70;4.20;;;16.10;99.90;;;;;;4971170;28;20488;-80
2022/08/11 02:36:09;;;;;;;5.77;4.77;;;16.00;99.90;;;;;;4973474;28;20536;-81
2022/08/11 02:38:46;;;;;;;5.13;4.63;;;15.90;99.90;;;;;;4968774;28;20448;-81
2022/08/11 02:45:02;;;;;;;4.43;4.03;;;15.90;99.90;;;;;;4962492;28;20444;-81
2022/08/11 02:50:50;;;;;;;5.17;4.67;;;15.90;99.90;;;;;;4977692;28;20455;-80
2022/08/11 02:53:38;;;;;;;4.47;4.07;;;15.80;99.90;;;;;;4974596;28;20469;-78
2022/08/11 02:56:27;;;;;;;4.37;4.00;;;15.70;99.90;;;;;;4976518;28;20770;-79
2022/08/11 03:02:14;;;;;;;3.73;3.43;;;15.70;99.90;;;;;;4977169;28;20515;-79
2022/08/11 03:04:56;;;;;;;4.80;4.40;;;15.80;99.90;;;;;;4997581;28;20462;-81
2022/08/11 03:07:45;;;;;;;4.90;4.40;;;15.70;99.90;;;;;;4987729;28;20465;-80
2022/08/11 03:10:40;;;;;;;4.70;4.20;;;15.60;99.90;;;;;;4972173;28;20438;-80
2022/08/11 03:19:38;;;;;;;5.10;4.60;;;15.50;99.90;;;;;;4977992;28;20497;-79
2022/08/11 03:22:26;;;;;;;7.45;5.18;;;15.50;99.90;;;;;;4946602;28;20476;-80
2022/08/11 03:25:00;;;;;;;6.88;4.75;;;15.30;99.90;;;;;;4972334;28;20414;-79
2022/08/11 03:27:40;;;;;;;4.47;4.07;;;15.20;99.90;;;;;;4974983;28;20206;-81
2022/08/11 03:30:15;;;;;;;6.70;5.57;;;15.30;99.90;;;;;;4982620;28;20715;-79
2022/08/11 03:36:13;;;;;;;6.15;5.47;;;15.30;99.90;;;;;;4978009;28;20208;-80
2022/08/11 03:39:12;;;;;;;6.13;5.07;;;15.40;99.90;;;;;;4972043;28;20215;-78
2022/08/11 03:41:55;;;;;;;6.22;5.03;;;15.20;99.90;;;;;;4973351;28;20272;-80
2022/08/11 03:44:35;;;;;;;6.32;5.07;;;15.00;99.90;;;;;;4972388;28;20214;-79
2022/08/11 03:47:49;;;;;;;7.47;4.80;;;15.10;99.90;;;;;;4975319;28;20212;-79
2022/08/11 03:50:39;;;;;;;5.30;4.80;;;15.10;99.90;;;;;;4978076;28;20528;-80
2022/08/11 03:53:19;;;;;;;4.80;4.35;;;15.10;99.90;;;;;;4978254;28;20206;-79
2022/08/11 03:56:12;;;;;;;6.35;5.78;;;15.00;99.90;;;;;;4980418;28;20240;-80
2022/08/11 03:59:09;;;;;;;7.35;4.90;;;15.10;99.90;;;;;;4975982;28;20342;-80
2022/08/11 04:01:58;;;;;;;6.95;4.70;;;15.10;99.90;;;;;;4972614;28;20806;-79
2022/08/11 04:04:57;;;;;;;7.45;5.38;;;15.20;99.90;;;;;;4978750;28;20220;-79
2022/08/11 04:08:02;;;;;;;7.13;5.28;;;15.40;99.90;;;;;;4981270;28;20223;-79
2022/08/11 04:11:06;;;;;;;6.83;4.87;;;15.50;99.90;;;;;;4973826;28;20467;-79
2022/08/11 04:15:58;;;;;;;6.55;5.15;;;15.60;99.90;;;;;;4980440;28;20569;-79
2022/08/11 04:17:06;;;;;;;5.57;4.65;;;15.60;99.90;;;;;;4976033;28;20580;-79
2022/08/11 04:20:10;;;;;;;7.00;5.50;;;15.80;99.90;;;;;;4976330;28;20688;-80
2022/08/11 04:22:40;;;;;;;5.47;4.93;;;15.70;99.90;;;;;;4974247;28;20442;-80
2022/08/11 04:25:45;;;;;;;6.38;4.88;;;15.90;99.90;;;;;;4976520;28;20452;-80
2022/08/11 04:28:39;;;;;;;5.67;5.03;;;16.00;99.90;;;;;;4973847;28;20210;-79
2022/08/11 04:31:33;;;;;;;5.47;4.95;;;16.00;99.90;;;;;;4967636;28;20449;-79
2022/08/11 04:34:39;;;;;;;6.57;5.63;;;16.00;99.90;;;;;;4971803;28;20238;-78
2022/08/11 04:40:24;;;;;;;7.33;6.30;;;16.40;99.90;;;;;;4971918;28;20463;-81
2022/08/11 04:43:27;;;;;;;6.17;5.67;;;16.50;99.90;;;;;;4973409;28;20542;-80
2022/08/11 04:46:27;;;;;;;8.33;6.50;;;16.60;99.90;;;;;;4981099;28;20459;-80
2022/08/11 05:02:21;;;;;;;16.30;5.10;;;17.60;99.90;;;;;;4967139;28;20445;-80
2022/08/11 05:08:31;;;;;;;17.53;5.70;;;17.90;99.90;;;;;;4971111;28;20442;-79
2022/08/11 05:11:12;;;;;;;5.33;4.53;;;18.10;99.90;;;;;;4971185;28;20650;-80
2022/08/11 05:37:11;;;;;;;9.00;6.57;;;19.10;99.90;;;;;;4972438;28;20601;-78
2022/08/11 05:57:07;;;;;;;9.63;8.03;;;19.80;99.90;;;;;;4970806;28;20735;-80
2022/08/11 05:59:34;;;;;;;28.57;19.40;;;19.90;99.90;;;;;;4980118;28;20449;-79
2022/08/11 06:02:04;;;;;;;6.73;5.83;;;20.10;99.90;;;;;;4981192;28;20414;-79
2022/08/11 06:04:32;;;;;;;6.27;5.70;;;20.10;99.90;;;;;;4983312;28;20791;-78
2022/08/11 06:07:07;;;;;;;6.90;5.17;;;20.50;99.90;;;;;;4982760;28;20440;-79
2022/08/11 06:09:57;;;;;;;7.13;4.73;;;20.90;99.90;;;;;;4981744;28;20669;-79
2022/08/11 06:12:31;;;;;;;6.50;4.90;;;21.10;99.90;;;;;;4980257;28;20420;-78
2022/08/11 06:15:04;;;;;;;6.53;4.90;;;21.30;99.90;;;;;;4973746;28;20471;-79
2022/08/11 06:17:35;;;;;;;8.40;5.03;;;21.60;99.90;;;;;;4983200;28;20621;-78
2022/08/11 06:20:06;;;;;;;6.00;4.20;;;21.90;99.90;;;;;;4983468;28;20425;-79
2022/08/11 06:22:34;;;;;;;6.13;4.93;;;22.10;99.90;;;;;;4980436;28;20415;-78
2022/08/11 06:25:03;;;;;;;4.53;4.03;;;22.30;99.90;;;;;;4976675;28;20452;-78
2022/08/11 06:27:33;;;;;;;4.93;4.33;;;22.40;99.90;;;;;;4975434;28;20485;-78
2022/08/11 06:30:12;;;;;;;5.17;4.20;;;22.70;99.90;;;;;;4982196;28;20423;-79
2022/08/11 06:32:44;;;;;;;6.87;3.30;;;22.90;99.90;;;;;;4980570;28;20955;-79
2022/08/11 06:35:34;;;;;;;3.03;2.77;;;23.10;99.90;;;;;;4979331;28;20463;-78
2022/08/11 06:38:15;;;;;;;3.10;2.30;;;23.00;99.90;;;;;;4975294;28;20417;-79
2022/08/11 06:43:53;;;;;;;3.00;2.80;;;22.80;99.90;;;;;;4975281;28;20742;-79
2022/08/11 06:46:30;;;;;;;2.47;2.27;;;22.80;99.90;;;;;;4972508;28;20476;-78
2022/08/11 06:49:01;;;;;;;3.23;2.10;;;23.20;99.90;;;;;;4969837;28;20455;-77
2022/08/11 06:51:28;;;;;;;4.03;2.23;;;24.20;99.90;;;;;;4984567;28;20481;-79
2022/08/11 06:54:00;;;;;;;3.23;1.90;;;24.90;99.90;;;;;;4981263;28;20454;-80
2022/08/11 07:02:51;;;;;;;2.40;2.20;;;26.60;99.90;;;;;;4992133;28;20455;-80
2022/08/11 07:05:25;;;;;;;4.17;2.43;;;27.70;99.90;;;;;;4997674;28;20402;-79
2022/08/11 07:17:47;;;;;;;4.83;2.57;;;30.10;96.20;;;;;;4975083;28;20816;-79
2022/08/11 07:28:54;;;;;;;2.40;2.20;;;33.20;88.00;;;;;;4986202;28;20428;-80
2022/08/11 07:31:31;;;;;;;2.73;2.43;;;34.30;80.60;;;;;;4978192;28;20427;-77
2022/08/11 07:34:03;;;;;;;3.90;2.43;;;33.60;80.00;;;;;;4970078;28;20586;-79
2022/08/11 07:36:41;;;;;;;2.57;2.23;;;33.70;78.10;;;;;;4970161;28;20468;-79
2022/08/11 07:39:17;;;;;;;6.83;2.60;;;33.90;77.00;;;;;;4969464;28;20542;-79
2022/08/11 07:41:46;;;;;;;3.53;2.97;;;35.60;73.80;;;;;;4975252;28;20457;-78
2022/08/11 07:44:15;;;;;;;2.27;2.07;;;34.20;74.60;;;;;;4978542;28;20448;-78
2022/08/11 07:52:32;;;;;;;3.43;2.00;;;35.00;71.00;;;;;;4977978;28;20783;-79
2022/08/11 07:55:04;;;;;;;2.30;2.10;;;33.50;73.70;;;;;;4989115;28;20535;-79
2022/08/11 08:17:50;;;;;;;7.83;2.53;;;37.30;59.70;;;;;;4991895;28;20443;-79
2022/08/11 08:20:50;;;;;;;6.13;2.33;;;37.20;59.50;;;;;;4987845;28;20450;-81
2022/08/11 08:23:32;;;;;;;2.50;2.30;;;35.50;61.60;;;;;;4982775;28;20448;-78
2022/08/11 08:26:04;;;;;;;2.20;2.00;;;33.70;64.10;;;;;;4974336;28;20443;-80
2022/08/11 08:30:45;;;;;;;2.13;1.83;;;33.50;65.80;;;;;;4976950;28;20811;-78
2022/08/11 08:31:43;;;;;;;2.33;2.13;;;34.20;64.70;;;;;;4969975;28;20805;-78
2022/08/11 08:34:12;;;;;;;3.37;2.50;;;35.10;62.80;;;;;;4972514;28;20608;-80
2022/08/11 08:36:48;;;;;;;2.07;1.90;;;33.10;66.10;;;;;;4981458;28;20436;-79
2022/08/11 08:39:20;;;;;;;1.93;1.80;;;33.00;67.80;;;;;;4976270;28;20428;-82
2022/08/11 08:41:58;;;;;;;1.67;1.57;;;33.00;65.20;;;;;;4987070;28;20498;-79
2022/08/11 08:44:26;;;;;;;1.90;1.70;;;32.80;66.10;;;;;;4987115;28;20437;-79
2022/08/11 08:47:08;;;;;;;5.33;2.20;;;33.30;64.60;;;;;;4977827;28;20456;-80
2022/08/11 08:49:48;;;;;;;1.83;1.70;;;32.10;66.20;;;;;;4989268;28;20583;-80
2022/08/11 08:52:39;;;;;;;3.87;2.33;;;32.30;66.10;;;;;;4982732;28;21083;-80
2022/08/11 08:55:15;;;;;;;2.43;1.90;;;31.10;69.10;;;;;;4984303;28;20476;-80
2022/08/11 08:57:47;;;;;;;1.90;1.80;;;31.40;67.90;;;;;;4984565;28;20449;-78
2022/08/11 09:00:15;;;;;;;1.87;1.60;;;31.20;67.10;;;;;;4978561;28;20451;-78
2022/08/11 09:02:48;;;;;;;1.87;1.77;;;30.40;67.50;;;;;;4988614;28;20589;-79
2022/08/11 09:05:18;;;;;;;1.60;1.50;;;30.50;68.90;;;;;;4990084;28;20454;-81
2022/08/11 09:07:49;;;;;;;2.13;1.93;;;31.10;66.50;;;;;;4991479;28;20438;-76
2022/08/11 09:10:19;;;;;;;3.40;2.03;;;29.00;72.50;;;;;;4975260;28;20448;-78
2022/08/11 09:12:47;;;;;;;1.70;1.60;;;27.00;78.90;;;;;;4978655;28;20443;-79
2022/08/11 09:15:16;;;;;;;1.90;1.70;;;28.30;76.80;;;;;;4985531;28;20823;-78
2022/08/11 09:17:48;;;;;;;1.83;1.73;;;30.90;70.30;;;;;;4988773;28;20540;-78
2022/08/11 09:20:23;;;;;;;1.87;1.70;;;32.30;65.70;;;;;;4981295;28;20614;-78
2022/08/11 09:28:57;;;;;;;3.97;1.47;;;31.20;66.00;;;;;;4973965;28;20446;-77
2022/08/11 09:31:25;;;;;;;2.70;1.83;;;30.20;68.20;;;;;;4975889;28;20470;-78
2022/08/11 09:33:54;;;;;;;2.20;1.80;;;29.30;70.40;;;;;;4985078;28;20447;-78
2022/08/11 09:41:59;;;;;;;1.77;1.67;;;27.30;77.40;;;;;;4972792;28;20509;-79
2022/08/11 09:44:47;;;;;;;2.03;1.43;;;27.50;76.40;;;;;;4978599;28;20436;-79
2022/08/11 09:47:29;;;;;;;2.43;1.93;;;27.50;77.80;;;;;;4974761;28;20490;-77
2022/08/11 09:49:59;;;;;;;1.50;1.40;;;27.30;77.40;;;;;;4976015;28;20423;-78
2022/08/11 09:52:30;;;;;;;1.93;1.83;;;27.00;78.30;;;;;;4978583;28;20462;-78
2022/08/11 09:54:57;;;;;;;2.90;1.70;;;27.20;77.50;;;;;;4978711;28;20518;-78
2022/08/11 10:00:36;;;;;;;2.10;1.90;;;28.00;72.90;;;;;;4991451;28;20524;-80
2022/08/11 10:03:12;;;;;;;1.43;1.33;;;27.80;74.20;;;;;;4975943;28;20435;-79
2022/08/11 10:08:37;;;;;;;2.17;1.50;;;27.10;74.60;;;;;;4975817;28;20428;-77
2022/08/11 10:11:07;;;;;;;2.23;2.03;;;27.10;76.60;;;;;;4979051;28;20449;-78
2022/08/11 10:15:32;;;;;;;2.03;1.83;;;27.00;76.60;;;;;;4983993;28;20448;-80
2022/08/11 10:16:48;;;;;;;2.57;1.57;;;26.70;76.20;;;;;;4977174;28;20435;-79
2022/08/11 10:19:18;;;;;;;1.80;1.70;;;27.00;78.20;;;;;;4967705;28;20485;-79
2022/08/11 10:27:26;;;;;;;1.40;1.30;;;25.80;79.90;;;;;;4973738;28;20453;-77
2022/08/11 10:36:05;;;;;;;1.60;1.50;;;26.20;79.50;;;;;;4975170;28;20563;-80
2022/08/11 10:38:44;;;;;;;1.37;1.27;;;26.10;79.90;;;;;;4975684;28;20428;-78
2022/08/11 10:43:59;;;;;;;5.07;1.87;;;25.80;80.30;;;;;;4971154;28;20457;-77
2022/08/11 10:49:17;;;;;;;1.60;1.50;;;25.80;82.50;;;;;;4971352;28;20802;-81
2022/08/11 11:00:08;;;;;;;2.50;1.23;;;26.20;81.50;;;;;;4980472;28;20689;-78
2022/08/11 11:02:35;;;;;;;1.40;1.27;;;26.10;80.90;;;;;;4978566;28;20428;-80
2022/08/11 11:05:23;;;;;;;1.27;1.17;;;26.50;81.60;;;;;;4983284;28;20448;-80
2022/08/11 11:11:15;;;;;;;1.77;1.50;;;26.70;79.30;;;;;;4970699;28;20446;-80
2022/08/11 11:19:22;;;;;;;1.10;1.00;;;26.90;78.30;;;;;;4981822;28;20438;-78
2022/08/11 11:21:54;;;;;;;4.20;1.70;;;26.80;78.00;;;;;;4981952;28;20804;-79
2022/08/11 11:24:51;;;;;;;1.50;1.40;;;27.00;79.70;;;;;;4977060;28;20414;-80
2022/08/11 11:27:25;;;;;;;1.20;1.10;;;27.00;79.50;;;;;;4975361;28;20442;-80
2022/08/11 11:30:10;;;;;;;1.40;1.30;;;26.80;79.80;;;;;;4969785;28;20443;-80
2022/08/11 11:32:55;;;;;;;1.50;1.03;;;26.60;81.90;;;;;;4982437;28;20416;-79
2022/08/11 11:35:56;;;;;;;1.77;1.67;;;27.00;79.60;;;;;;4979842;28;20528;-78
2022/08/11 11:38:24;;;;;;;1.93;1.10;;;27.20;79.60;;;;;;4983324;28;20554;-79
2022/08/11 11:41:23;;;;;;;3.13;1.30;;;27.60;75.40;;;;;;4979182;28;20457;-82
2022/08/11 11:43:39;;;;;;;1.40;1.30;;;27.40;74.60;;;;;;4987985;28;20454;-80
2022/08/11 11:46:08;;;;;;;1.80;1.70;;;26.80;75.90;;;;;;4982778;28;20556;-78
2022/08/11 11:48:35;;;;;;;1.97;1.30;;;26.30;77.40;;;;;;4981856;28;20495;-80
2022/08/11 11:51:03;;;;;;;1.40;1.30;;;26.20;79.30;;;;;;4978398;28;20854;-78
2022/08/11 11:53:30;;;;;;;6.00;1.77;;;26.00;79.90;;;;;;4985719;28;20723;-81
2022/08/11 11:55:59;;;;;;;2.20;1.50;;;26.10;80.10;;;;;;4975077;28;20485;-79
2022/08/11 12:01:16;;;;;;;1.20;1.10;;;26.90;79.50;;;;;;4980623;28;20469;-78
2022/08/11 12:03:45;;;;;;;1.40;1.30;;;27.10;77.30;;;;;;4976077;28;20527;-77
2022/08/11 12:06:13;;;;;;;1.90;1.80;;;26.60;75.80;;;;;;4977487;28;20640;-79
2022/08/11 12:08:41;;;;;;;1.90;1.30;;;26.30;78.30;;;;;;4997831;28;20448;-78
2022/08/11 12:13:59;;;;;;;1.57;1.20;;;26.30;80.60;;;;;;5002663;28;20431;-79
2022/08/11 12:16:27;;;;;;;2.30;1.17;;;26.40;79.00;;;;;;5004952;28;20557;-77
2022/08/11 12:19:09;;;;;;;6.13;1.67;;;26.60;78.80;;;;;;4996988;28;20556;-79
2022/08/11 12:27:19;;;;;;;4.60;1.63;;;26.80;78.40;;;;;;4988810;28;20529;-79
2022/08/11 12:27:22;;;;;;;2.10;1.90;;;26.80;79.30;;;;;;4979145;28;20428;-77
2022/08/11 12:29:58;;;;;;;10.10;2.97;;;26.90;79.40;;;;;;4977270;28;20444;-78
2022/08/11 12:32:29;;;;;;;2.50;1.20;;;26.50;79.20;;;;;;4984965;28;20489;-78
2022/08/11 12:34:56;;;;;;;4.00;2.03;;;26.20;80.20;;;;;;4980591;28;20790;-78
2022/08/11 12:37:33;;;;;;;1.53;1.43;;;26.00;81.30;;;;;;4972683;28;20413;-77
2022/08/11 12:46:44;;;;;;;1.77;1.67;;;26.40;78.60;;;;;;4980632;28;20422;-78
2022/08/11 12:52:05;;;;;;;1.90;1.80;;;26.80;75.50;;;;;;4936369;29;20409;-79
2022/08/11 12:55:04;;;;;;;4.77;1.53;;;27.30;74.90;;;;;;4963555;28;20429;-79
2022/08/11 13:06:05;;;;;;;2.00;1.90;;;25.90;79.80;;;;;;4976160;28;20415;-77
2022/08/11 13:08:35;;;;;;;1.23;1.03;;;25.90;80.20;;;;;;4978151;28;20597;-77
2022/08/11 13:13:51;;;;;;;1.80;1.40;;;25.60;79.70;;;;;;4975409;28;20470;-77
2022/08/11 13:17:19;;;;;;;3.50;1.77;;;25.40;80.30;;;;;;4978105;28;20497;-78
2022/08/11 13:19:22;;;;;;;1.80;1.30;;;25.50;81.10;;;;;;4980141;28;20470;-78
2022/08/11 13:21:51;;;;;;;1.90;1.80;;;25.70;80.60;;;;;;4975058;28;20555;-77
2022/08/11 13:24:20;;;;;;;2.90;1.97;;;25.80;80.50;;;;;;4978543;28;20454;-80
2022/08/11 13:27:11;;;;;;;3.43;1.50;;;26.00;78.80;;;;;;4985483;28;20478;-79
2022/08/11 13:29:41;;;;;;;1.70;1.60;;;26.00;78.60;;;;;;4980718;28;20786;-77
2022/08/11 13:32:10;;;;;;;3.40;1.50;;;26.00;79.30;;;;;;4985737;28;20493;-77
2022/08/11 13:34:41;;;;;;;1.13;1.07;;;26.00;77.80;;;;;;4979794;28;20444;-76
2022/08/11 13:37:11;;;;;;;2.80;1.33;;;26.20;76.60;;;;;;4978695;28;20477;-77
2022/08/11 13:39:46;;;;;;;1.50;1.40;;;26.30;76.80;;;;;;4986633;28;20482;-78
2022/08/11 13:42:15;;;;;;;4.80;1.43;;;26.20;77.50;;;;;;4987395;28;20447;-77
2022/08/11 13:44:42;;;;;;;1.10;1.00;;;26.00;78.90;;;;;;4975092;28;20419;-77
2022/08/11 13:47:12;;;;;;;1.50;1.23;;;25.70;80.00;;;;;;4978812;28;20873;-77
2022/08/11 13:49:42;;;;;;;1.30;1.20;;;25.70;79.50;;;;;;4978296;28;20458;-78
2022/08/11 13:52:14;;;;;;;1.40;1.30;;;26.00;78.10;;;;;;4978065;28;20454;-80
2022/08/11 13:54:43;;;;;;;1.30;1.20;;;26.00;76.10;;;;;;4961620;28;20453;-79
2022/08/11 13:57:13;;;;;;;3.90;1.80;;;25.90;76.10;;;;;;4961755;28;20851;-77
2022/08/11 14:00:09;;;;;;;1.20;1.10;;;25.90;75.40;;;;;;4958592;28;20795;-79
2022/08/11 14:02:52;;;;;;;1.30;1.20;;;25.90;76.30;;;;;;4969128;28;20730;-78
2022/08/11 14:05:28;;;;;;;0.83;0.83;;;26.10;75.70;;;;;;4964594;28;20512;-79
2022/08/11 14:08:00;;;;;;;2.50;1.07;;;26.10;75.20;;;;;;4967029;28;20450;-79
2022/08/11 14:10:31;;;;;;;2.63;1.20;;;26.00;75.10;;;;;;4966448;28;20447;-79
2022/08/11 14:15:52;;;;;;;5.77;1.10;;;25.90;77.80;;;;;;4977023;28;20482;-80
2022/08/11 14:18:27;;;;;;;1.60;1.47;;;26.10;78.00;;;;;;4977643;28;20478;-77
2022/08/11 14:23:49;;;;;;;2.10;1.50;;;26.30;77.90;;;;;;4970356;28;20410;-77
2022/08/11 14:26:29;;;;;;;1.47;1.23;;;26.30;77.70;;;;;;4959690;28;20451;-78
2022/08/11 14:29:12;;;;;;;1.13;1.03;;;26.10;77.40;;;;;;4973762;28;20447;-78
2022/08/11 14:31:44;;;;;;;1.03;0.90;;;25.70;78.20;;;;;;4969472;28;21011;-79
2022/08/11 14:34:13;;;;;;;3.00;1.23;;;25.50;77.30;;;;;;4963718;28;20445;-78
2022/08/11 14:36:52;;;;;;;1.40;1.30;;;25.60;76.30;;;;;;4969707;28;20825;-80
2022/08/11 14:39:28;;;;;;;1.80;1.17;;;25.70;75.50;;;;;;4981032;28;20406;-81
2022/08/11 14:47:35;;;;;;;1.20;1.10;;;25.90;73.30;;;;;;4976463;28;20415;-77
2022/08/11 14:50:05;;;;;;;1.47;1.37;;;25.80;74.90;;;;;;4966319;28;20450;-79
2022/08/11 14:52:48;;;;;;;1.37;1.27;;;25.90;76.10;;;;;;4966473;28;20578;-80
2022/08/11 14:58:07;;;;;;;1.53;1.20;;;26.20;74.90;;;;;;4977508;28;21367;-78
2022/08/11 15:00:35;;;;;;;1.17;1.07;;;26.40;74.70;;;;;;4969731;28;20680;-79
2022/08/11 15:03:10;;;;;;;1.90;1.77;;;26.50;74.20;;;;;;4965223;28;20427;-78
2022/08/11 15:05:46;;;;;;;3.13;1.80;;;26.70;75.00;;;;;;4967196;28;20679;-78
2022/08/11 15:17:06;;;;;;;2.53;1.30;;;26.30;76.00;;;;;;4972589;28;20460;-77
2022/08/11 15:17:08;;;;;;;2.43;1.60;;;25.90;76.60;;;;;;4982444;28;20472;-79
2022/08/11 15:24:17;;;;;;;5.77;1.40;;;25.60;76.60;;;;;;4984582;28;20781;-79
2022/08/11 15:25:13;;;;;;;2.97;1.80;;;25.20;77.20;;;;;;4966859;28;20416;-80
2022/08/11 15:38:59;;;;;;;1.50;1.40;;;25.40;78.20;;;;;;4980437;28;20784;-77
2022/08/11 15:47:39;;;;;;;2.73;1.90;;;26.00;76.60;;;;;;4975516;28;20759;-76
2022/08/11 15:50:13;;;;;;;3.90;2.07;;;26.00;77.30;;;;;;4980834;28;20418;-79
2022/08/11 15:52:57;;;;;;;1.40;1.30;;;26.00;77.80;;;;;;4971375;28;20434;-79
2022/08/11 15:55:27;;;;;;;1.37;1.03;;;25.80;78.40;;;;;;4975929;28;20904;-77
2022/08/11 16:06:42;;;;;;;1.33;1.23;;;25.40;79.00;;;;;;4985920;28;20523;-78
2022/08/11 16:09:19;;;;;;;2.20;1.67;;;25.40;79.50;;;;;;4983679;28;20436;-78
2022/08/11 16:11:47;;;;;;;1.10;1.00;;;25.30;78.90;;;;;;4983992;28;20450;-78
2022/08/11 16:17:06;;;;;;;1.80;1.60;;;25.20;77.50;;;;;;4982363;28;20478;-80
2022/08/11 16:19:35;;;;;;;1.63;1.40;;;25.20;76.90;;;;;;4980475;28;20453;-78
2022/08/11 16:22:09;;;;;;;2.20;1.27;;;25.20;77.70;;;;;;4984830;28;20439;-80
2022/08/11 16:24:43;;;;;;;2.40;1.30;;;25.20;77.70;;;;;;4982555;28;20724;-80
2022/08/11 16:27:42;;;;;;;1.93;1.67;;;25.10;77.50;;;;;;4985611;28;20451;-77
2022/08/11 16:30:10;;;;;;;1.90;1.10;;;25.00;77.00;;;;;;4983013;28;20455;-77
2022/08/11 16:32:40;;;;;;;1.43;1.20;;;25.10;76.70;;;;;;4972708;28;20457;-77
2022/08/11 16:40:59;;;;;;;2.50;1.30;;;25.10;77.20;;;;;;4985091;28;20479;-77
2022/08/11 16:49:07;;;;;;;5.07;3.13;;;25.10;79.00;;;;;;4973702;28;20419;-77
2022/08/11 16:51:34;;;;;;;1.43;1.33;;;25.30;79.80;;;;;;4976997;28;20450;-79
2022/08/11 16:54:01;;;;;;;1.40;1.30;;;25.30;78.10;;;;;;4983456;28;20437;-79
2022/08/11 16:56:39;;;;;;;2.03;1.80;;;25.30;77.00;;;;;;4988606;28;20476;-80
2022/08/11 16:59:15;;;;;;;1.83;1.70;;;25.20;78.00;;;;;;4982109;28;20412;-77
2022/08/11 17:01:51;;;;;;;1.40;1.20;;;25.20;77.10;;;;;;4983068;28;20489;-80
2022/08/11 17:13:34;;;;;;;1.40;1.27;;;25.00;77.60;;;;;;4980466;28;20418;-80
2022/08/11 17:16:12;;;;;;;1.30;1.20;;;25.10;77.60;;;;;;4980905;28;20437;-79
2022/08/11 17:19:00;;;;;;;1.07;0.97;;;25.20;79.90;;;;;;4998581;28;20391;-80
2022/08/11 17:21:34;;;;;;;1.47;1.37;;;24.50;90.00;;;;;;4992487;28;20552;-77
2022/08/11 17:24:09;;;;;;;6.40;1.80;;;24.30;91.20;;;;;;5005407;28;20407;-79
2022/08/11 17:26:57;;;;;;;1.30;1.10;;;24.10;92.80;;;;;;4993869;28;20411;-79
2022/08/11 17:29:27;;;;;;;3.40;1.57;;;23.80;93.90;;;;;;4995838;28;20411;-78
2022/08/11 17:37:33;;;;;;;1.17;1.07;;;23.10;98.00;;;;;;4968579;28;20451;-79
2022/08/11 17:40:05;;;;;;;1.87;1.50;;;22.80;99.10;;;;;;4967710;28;20455;-78
2022/08/11 17:48:24;;;;;;;1.93;1.57;;;22.40;99.90;;;;;;4967159;28;20413;-78
2022/08/11 17:48:34;;;;;;;1.60;1.50;;;22.40;99.90;;;;;;4977585;28;20513;-78
2022/08/11 17:51:05;;;;;;;2.70;1.60;;;22.20;99.90;;;;;;4970752;28;20425;-79
2022/08/11 17:59:51;;;;;;;3.80;1.47;;;22.10;99.90;;;;;;4972927;28;20455;-77
2022/08/11 18:05:17;;;;;;;2.60;1.50;;;22.00;99.90;;;;;;4972336;28;20429;-77
